Time;durP1;ratioP1;P1;durP2;ratioP2;P2;SDS_P1;SDS_P2;PMS_P1;PMS_P2;Temp;Humidity;BMP_temperature;BMP_pressure;BME280_temperature;BME280_humidity;BME280_pressure;Samples;Min_cycle;Max_cycle;Signal;HPM_P1;HPM_P2
2022/10/31 00:01:27;;;;;;;25.10;12.60;;;;;;;10.11;100.00;99032.80;214665;1295;23174;-73
2022/10/31 00:06:29;;;;;;;23.10;13.30;;;;;;;10.04;99.98;99029.00;214584;1309;24337;-73
2022/10/31 00:11:30;;;;;;;25.30;13.90;;;;;;;10.00;100.00;99031.23;214694;1309;25234;-73
2022/10/31 00:16:33;;;;;;;28.20;13.30;;;;;;;9.98;100.00;99033.27;214543;1300;22483;-74
2022/10/31 00:21:35;;;;;;;29.90;13.90;;;;;;;9.93;100.00;99038.48;214710;1309;24279;-73
2022/10/31 00:26:37;;;;;;;26.80;13.70;;;;;;;9.91;100.00;99034.70;214615;1309;23783;-73
2022/10/31 00:31:39;;;;;;;24.90;11.80;;;;;;;9.88;100.00;99035.58;214771;1309;22520;-73
2022/10/31 00:36:41;;;;;;;23.10;12.80;;;;;;;9.84;100.00;99038.02;214696;1309;24254;-73
2022/10/31 00:41:47;;;;;;;19.30;11.50;;;;;;;9.81;100.00;99039.27;214699;1309;24944;-72
2022/10/31 00:46:49;;;;;;;21.10;10.70;;;;;;;9.78;100.00;99040.08;214604;1309;24476;-74
2022/10/31 00:51:55;;;;;;;20.30;11.80;;;;;;;9.74;100.00;99033.84;214549;1287;24077;-74
2022/10/31 00:56:57;;;;;;;22.30;11.60;;;;;;;9.68;100.00;99037.95;214683;1291;22482;-73
2022/10/31 01:01:59;;;;;;;27.60;12.40;;;;;;;9.62;100.00;99034.07;214549;1309;25471;-73
2022/10/31 01:07:01;;;;;;;23.00;12.30;;;;;;;9.60;100.00;99034.71;214508;1309;22503;-73
2022/10/31 01:12:03;;;;;;;21.60;11.90;;;;;;;9.57;100.00;99032.11;214512;1309;22509;-73
2022/10/31 01:17:05;;;;;;;24.20;13.10;;;;;;;9.56;100.00;99031.69;214661;1309;23738;-72
2022/10/31 01:22:07;;;;;;;28.40;14.30;;;;;;;9.54;100.00;99037.52;214647;1299;22519;-72
2022/10/31 01:27:09;;;;;;;23.40;12.40;;;;;;;9.53;100.00;99039.51;214720;1304;23805;-73
2022/10/31 01:32:11;;;;;;;21.10;11.80;;;;;;;9.51;100.00;99033.58;214692;1308;22597;-73
2022/10/31 01:37:13;;;;;;;22.50;13.30;;;;;;;9.50;100.00;99036.00;214530;1309;24264;-73
2022/10/31 01:42:21;;;;;;;21.30;12.10;;;;;;;9.46;100.00;99033.07;214647;1309;23057;-74
2022/10/31 01:47:33;;;;;;;24.20;13.10;;;;;;;9.39;100.00;99027.27;214678;1304;24257;-73
2022/10/31 01:52:40;;;;;;;20.60;11.80;;;;;;;9.31;100.00;99028.23;214419;1304;22479;-73
2022/10/31 01:57:46;;;;;;;22.60;12.70;;;;;;;9.25;100.00;99026.84;214656;1309;22932;-73
2022/10/31 02:02:51;;;;;;;24.70;12.20;;;;;;;9.20;100.00;99021.79;214595;1309;22492;-74
2022/10/31 02:07:59;;;;;;;22.30;12.90;;;;;;;9.18;100.00;99035.32;214666;1309;115206;-73
2022/10/31 02:13:06;;;;;;;25.80;13.00;;;;;;;9.16;100.00;99038.68;214796;1309;22475;-73
2022/10/31 02:18:10;;;;;;;29.10;13.70;;;;;;;9.13;100.00;99040.89;214582;1309;22476;-73
2022/10/31 02:23:33;;;;;;;24.90;14.10;;;;;;;9.10;100.00;99038.75;214798;1309;23938;-74
2022/10/31 02:29:23;;;;;;;25.60;12.90;;;;;;;9.05;100.00;99038.08;214762;1309;22524;-73
2022/10/31 02:34:45;;;;;;;24.20;12.60;;;;;;;9.03;100.00;99040.80;214780;1309;22548;-73
2022/10/31 02:39:53;;;;;;;22.30;11.20;;;;;;;9.01;100.00;99036.76;214598;1309;25458;-73
2022/10/31 02:45:11;;;;;;;25.00;12.30;;;;;;;8.97;100.00;99042.22;214581;1309;25349;-73
2022/10/31 02:50:23;;;;;;;21.40;11.50;;;;;;;8.94;100.00;99037.30;214731;1295;22515;-72
2022/10/31 02:55:25;;;;;;;24.00;11.60;;;;;;;8.92;100.00;99045.22;214780;1309;22466;-73
2022/10/31 03:00:39;;;;;;;21.90;11.90;;;;;;;8.91;100.00;99044.04;214744;1309;25403;-72
2022/10/31 03:05:48;;;;;;;24.50;12.10;;;;;;;8.87;100.00;99042.40;214502;1309;22463;-73
2022/10/31 03:10:57;;;;;;;17.90;10.90;;;;;;;8.83;100.00;99042.83;214710;1308;22619;-76
2022/10/31 03:16:15;;;;;;;20.60;11.70;;;;;;;8.79;100.00;99049.79;214756;1309;22530;-74
2022/10/31 03:21:28;;;;;;;19.20;10.80;;;;;;;8.78;100.00;99052.98;214724;1309;24301;-74
2022/10/31 03:26:30;;;;;;;20.00;11.50;;;;;;;8.75;100.00;99059.02;214824;1309;22455;-73
2022/10/31 03:31:39;;;;;;;26.40;12.10;;;;;;;8.71;100.00;99060.80;214737;1309;24212;-73
2022/10/31 03:36:44;;;;;;;17.80;11.60;;;;;;;8.67;100.00;99062.02;214890;1309;22473;-74
2022/10/31 03:41:54;;;;;;;20.10;11.30;;;;;;;8.64;100.00;99070.20;214753;1309;25292;-73
2022/10/31 03:46:57;;;;;;;19.90;10.40;;;;;;;8.61;100.00;99072.83;214560;1309;24357;-73
2022/10/31 03:52:12;;;;;;;21.20;11.80;;;;;;;8.58;100.00;99073.67;214698;1309;24303;-73
2022/10/31 03:57:23;;;;;;;24.40;12.20;;;;;;;8.54;100.00;99074.37;214817;1309;22612;-73
2022/10/31 04:02:29;;;;;;;23.50;11.80;;;;;;;8.50;100.00;99073.95;214692;1309;25267;-74
2022/10/31 04:07:38;;;;;;;26.00;13.20;;;;;;;8.49;100.00;99077.36;214589;1309;22488;-74
2022/10/31 04:12:49;;;;;;;25.50;12.70;;;;;;;8.47;100.00;99076.72;214650;1309;22461;-73
2022/10/31 04:17:58;;;;;;;27.10;13.30;;;;;;;8.46;100.00;99082.75;214814;1309;22480;-74
2022/10/31 04:23:02;;;;;;;19.70;11.20;;;;;;;8.44;100.00;99088.02;214683;1309;25384;-73
2022/10/31 04:28:05;;;;;;;24.20;12.00;;;;;;;8.40;100.00;99091.89;214581;1309;22508;-73
2022/10/31 04:33:08;;;;;;;20.90;10.40;;;;;;;8.36;100.00;99092.44;214693;1304;22473;-73
2022/10/31 04:38:10;;;;;;;22.30;12.30;;;;;;;8.34;100.00;99092.32;214591;1309;22593;-74
2022/10/31 04:43:13;;;;;;;22.90;12.60;;;;;;;8.31;100.00;99094.41;214731;1301;22598;-74
2022/10/31 04:48:16;;;;;;;25.50;13.70;;;;;;;8.29;100.00;99095.84;214667;1304;22642;-73
2022/10/31 04:53:19;;;;;;;20.00;11.40;;;;;;;8.27;100.00;99098.88;214846;1308;22470;-74
2022/10/31 04:58:46;;;;;;;26.80;13.10;;;;;;;8.25;100.00;99099.63;214677;1309;23289;-73
2022/10/31 05:03:48;;;;;;;26.70;14.90;;;;;;;8.23;100.00;99092.79;214570;1309;22472;-73
2022/10/31 05:08:50;;;;;;;20.80;13.50;;;;;;;8.23;100.00;99093.48;214621;1309;25384;-74
2022/10/31 05:13:53;;;;;;;22.30;12.70;;;;;;;8.23;100.00;99091.02;214607;1309;22483;-74
2022/10/31 05:19:15;;;;;;;22.80;13.00;;;;;;;8.21;100.00;99091.67;214724;1309;22595;-74
2022/10/31 05:24:36;;;;;;;21.20;12.20;;;;;;;8.19;100.00;99100.15;214777;1309;22507;-74
2022/10/31 05:29:38;;;;;;;19.70;10.80;;;;;;;8.15;100.00;99101.95;214577;1309;22468;-73
2022/10/31 05:34:40;;;;;;;20.70;11.90;;;;;;;8.12;100.00;99105.25;214661;1309;22479;-73
2022/10/31 05:40:13;;;;;;;18.90;11.70;;;;;;;8.08;100.00;99110.86;214471;1309;23688;-73
2022/10/31 05:45:18;;;;;;;22.00;11.90;;;;;;;8.05;100.00;99116.45;214601;1309;24371;-73
2022/10/31 05:50:29;;;;;;;19.70;12.00;;;;;;;8.03;100.00;99118.64;214664;1309;22403;-74
2022/10/31 05:55:40;;;;;;;25.10;12.70;;;;;;;8.04;100.00;99130.00;214580;1309;22470;-73
2022/10/31 06:00:45;;;;;;;26.30;14.50;;;;;;;8.03;100.00;99133.63;214741;1309;24228;-74
2022/10/31 06:05:47;;;;;;;22.80;13.20;;;;;;;8.05;100.00;99134.64;214589;1309;25266;-73
2022/10/31 06:10:56;;;;;;;24.00;13.80;;;;;;;8.08;100.00;99139.98;214690;1298;22478;-73
2022/10/31 06:16:18;;;;;;;23.60;13.70;;;;;;;8.12;100.00;99141.87;214717;1309;22857;-73
2022/10/31 06:21:20;;;;;;;32.30;16.00;;;;;;;8.14;100.00;99145.55;214661;1309;25379;-74
2022/10/31 06:26:23;;;;;;;28.90;14.30;;;;;;;8.15;100.00;99148.17;214751;1309;25271;-73
2022/10/31 06:31:25;;;;;;;23.30;13.80;;;;;;;8.14;100.00;99152.77;215027;1283;25245;-73
2022/10/31 06:36:27;;;;;;;23.40;12.80;;;;;;;8.16;100.00;99158.42;214782;1288;22587;-72
2022/10/31 06:41:33;;;;;;;22.00;11.60;;;;;;;8.20;100.00;99155.55;214904;1299;22479;-72
2022/10/31 06:46:36;;;;;;;37.30;12.80;;;;;;;8.27;100.00;99160.91;215030;1284;22465;-73
2022/10/31 06:51:49;;;;;;;20.40;11.10;;;;;;;8.36;100.00;99163.38;214890;1283;22597;-72
2022/10/31 06:56:51;;;;;;;20.90;11.90;;;;;;;8.46;100.00;99170.33;215551;1284;23616;-71
2022/10/31 07:01:53;;;;;;;25.30;13.50;;;;;;;8.57;100.00;99175.05;215449;1280;22490;-71
2022/10/31 07:06:56;;;;;;;26.80;14.20;;;;;;;8.70;100.00;99177.68;215361;1277;22507;-71
2022/10/31 07:11:58;;;;;;;22.50;12.10;;;;;;;8.83;100.00;99178.91;215051;1284;22488;-71
2022/10/31 07:17:00;;;;;;;24.80;13.10;;;;;;;8.94;100.00;99175.48;215164;1285;22532;-71
2022/10/31 07:22:11;;;;;;;19.90;12.50;;;;;;;9.09;100.00;99180.57;215187;1283;23179;-71
2022/10/31 07:27:13;;;;;;;25.90;14.70;;;;;;;9.27;100.00;99182.58;215235;1278;22461;-71
2022/10/31 07:32:17;;;;;;;25.50;13.10;;;;;;;9.41;100.00;99185.77;215185;1284;22477;-70
2022/10/31 07:37:27;;;;;;;27.80;15.00;;;;;;;9.56;100.00;99187.66;215072;1284;22633;-71
2022/10/31 07:42:37;;;;;;;26.10;13.50;;;;;;;9.66;100.00;99184.05;214926;1294;25368;-71
2022/10/31 07:47:52;;;;;;;24.10;13.80;;;;;;;9.83;100.00;99182.14;215172;1288;25350;-71
2022/10/31 07:53:13;;;;;;;27.20;13.40;;;;;;;10.02;100.00;99183.02;215465;1284;25198;-71
2022/10/31 07:58:18;;;;;;;29.00;14.90;;;;;;;10.13;100.00;99188.49;215266;1285;25409;-70
2022/10/31 08:03:20;;;;;;;27.70;13.50;;;;;;;10.25;100.00;99189.98;215065;1294;24305;-70
2022/10/31 08:08:41;;;;;;;28.90;15.20;;;;;;;10.39;100.00;99185.33;215092;1284;22890;-71
2022/10/31 08:13:43;;;;;;;25.80;14.60;;;;;;;10.57;100.00;99187.68;215177;1283;25314;-71
2022/10/31 08:18:47;;;;;;;35.00;17.80;;;;;;;10.81;100.00;99193.79;215233;1309;22566;-71
2022/10/31 08:23:49;;;;;;;31.80;15.20;;;;;;;11.07;100.00;99191.98;215137;1285;22529;-72
2022/10/31 08:28:54;;;;;;;31.80;15.70;;;;;;;11.35;100.00;99189.59;215160;1286;22477;-72
2022/10/31 08:33:57;;;;;;;30.90;14.50;;;;;;;11.64;100.00;99193.48;215305;1285;22518;-73
2022/10/31 08:39:37;;;;;;;27.70;15.00;;;;;;;11.98;100.00;99194.56;215255;1284;22485;-73
2022/10/31 08:44:39;;;;;;;24.40;13.70;;;;;;;12.27;100.00;99198.52;215190;1283;25430;-73
2022/10/31 08:49:41;;;;;;;24.50;13.20;;;;;;;12.58;100.00;99200.35;215180;1284;24317;-72
2022/10/31 08:54:43;;;;;;;23.00;11.40;;;;;;;12.92;100.00;99198.23;215303;1284;26484;-72
2022/10/31 09:00:05;;;;;;;21.80;11.40;;;;;;;13.21;100.00;99196.89;215470;1283;24508;-75
2022/10/31 09:05:40;;;;;;;20.00;10.50;;;;;;;13.54;100.00;99199.67;215246;1284;22568;-74
2022/10/31 09:10:45;;;;;;;20.10;10.70;;;;;;;13.84;100.00;99198.73;214981;1286;22518;-72
2022/10/31 09:15:49;;;;;;;22.80;10.90;;;;;;;14.14;100.00;99200.23;215171;1284;22521;-72
2022/10/31 09:21:00;;;;;;;15.00;8.30;;;;;;;14.44;100.00;99201.71;215052;1294;22523;-72
2022/10/31 09:26:04;;;;;;;14.50;9.10;;;;;;;14.67;100.00;99207.38;214933;1310;22464;-71
2022/10/31 09:31:16;;;;;;;17.10;9.20;;;;;;;14.88;100.00;99212.23;215205;1302;22479;-71
2022/10/31 09:36:30;;;;;;;14.50;9.00;;;;;;;15.07;100.00;99208.05;215291;1283;25826;-72
2022/10/31 09:41:41;;;;;;;14.40;8.20;;;;;;;15.25;99.99;99210.04;215068;1286;25326;-71
2022/10/31 09:47:00;;;;;;;13.50;7.40;;;;;;;15.45;99.66;99208.33;215137;1308;23203;-71
2022/10/31 09:52:18;;;;;;;15.90;8.30;;;;;;;15.71;99.33;99205.72;215127;1309;22486;-71
2022/10/31 09:57:29;;;;;;;14.50;7.90;;;;;;;16.00;98.41;99203.39;215084;1286;22689;-72
2022/10/31 10:02:37;;;;;;;15.00;8.60;;;;;;;16.18;97.28;99207.13;215063;1284;25320;-70
2022/10/31 10:07:59;;;;;;;13.60;7.90;;;;;;;16.38;96.38;99205.00;215089;1295;22546;-71
2022/10/31 10:13:35;;;;;;;16.60;8.00;;;;;;;16.56;95.40;99208.70;215211;1300;24251;-71
2022/10/31 10:18:52;;;;;;;12.80;7.50;;;;;;;16.78;95.54;99205.81;215181;1309;24262;-70
2022/10/31 10:24:33;;;;;;;13.80;6.90;;;;;;;16.99;95.19;99207.04;215145;1295;23634;-71
2022/10/31 10:29:47;;;;;;;12.80;6.40;;;;;;;17.22;94.88;99199.20;215072;1309;22651;-71
2022/10/31 10:34:58;;;;;;;14.00;7.50;;;;;;;17.34;93.29;99197.51;215127;1310;25376;-71
2022/10/31 10:40:11;;;;;;;14.10;7.00;;;;;;;17.39;92.55;99196.80;215143;1294;22551;-71
2022/10/31 10:50:49;;;;;;;14.60;6.90;;;;;;;17.61;91.89;99191.20;215103;1285;22523;-71
2022/10/31 10:56:00;;;;;;;13.40;6.70;;;;;;;17.72;90.76;99190.32;215113;1309;22686;-71
2022/10/31 11:01:11;;;;;;;22.50;13.30;;;;;;;17.85;90.24;99188.14;215251;1294;23313;-71
2022/10/31 11:06:21;;;;;;;16.70;8.70;;;;;;;18.04;90.19;99184.80;215468;1285;22481;-71
2022/10/31 11:11:27;;;;;;;11.00;6.80;;;;;;;18.22;89.79;99180.29;215204;1285;22520;-71
2022/10/31 11:16:32;;;;;;;12.50;6.70;;;;;;;18.37;89.31;99180.46;215878;1283;22600;-72
2022/10/31 11:21:41;;;;;;;10.50;5.90;;;;;;;18.48;88.67;99179.34;215284;1285;24386;-71
2022/10/31 11:26:46;;;;;;;9.30;6.20;;;;;;;18.60;87.97;99173.42;215210;1284;22532;-71
2022/10/31 11:31:52;;;;;;;9.00;5.20;;;;;;;18.71;87.53;99168.36;215271;1284;24372;-72
2022/10/31 11:36:59;;;;;;;9.40;5.60;;;;;;;18.81;86.29;99169.04;215220;1284;24270;-72
2022/10/31 11:42:02;;;;;;;8.00;5.80;;;;;;;18.90;85.77;99162.69;215175;1284;24027;-72
2022/10/31 11:47:14;;;;;;;9.30;4.90;;;;;;;19.01;85.23;99168.27;215045;1291;22512;-72
2022/10/31 11:52:18;;;;;;;11.30;5.20;;;;;;;19.10;84.82;99164.41;215277;1295;27389;-72
2022/10/31 11:57:26;;;;;;;11.90;5.10;;;;;;;19.18;83.85;99158.45;215436;1282;22561;-72
2022/10/31 12:02:28;;;;;;;8.90;4.90;;;;;;;19.23;83.28;99154.29;215228;1283;23546;-72
2022/10/31 12:07:30;;;;;;;8.30;4.20;;;;;;;19.34;82.99;99153.63;215401;1295;22571;-73
2022/10/31 12:12:57;;;;;;;12.10;5.00;;;;;;;19.40;83.04;99149.95;215183;1291;25224;-72
2022/10/31 12:18:11;;;;;;;8.90;4.50;;;;;;;19.50;82.66;99145.29;215077;1285;23386;-71
2022/10/31 12:23:33;;;;;;;8.40;4.70;;;;;;;19.58;82.06;99145.86;215281;1285;22471;-72
2022/10/31 12:28:50;;;;;;;7.60;4.30;;;;;;;19.64;81.31;99143.28;215333;1294;22557;-72
2022/10/31 12:34:16;;;;;;;7.40;3.30;;;;;;;19.71;80.58;99143.30;215305;1278;24328;-74
2022/10/31 12:39:34;;;;;;;8.90;3.70;;;;;;;19.77;80.02;99142.59;215952;1284;24321;-76
2022/10/31 12:44:48;;;;;;;8.20;4.40;;;;;;;19.83;79.90;99137.66;215740;1281;24312;-76
2022/10/31 12:49:49;;;;;;;10.40;3.80;;;;;;;19.89;79.71;99136.46;215521;1288;25388;-83
2022/10/31 12:55:04;;;;;;;6.60;3.60;;;;;;;19.91;79.12;99135.50;216838;1308;22608;-82
2022/10/31 13:00:15;;;;;;;10.90;3.40;;;;;;;19.93;78.50;99127.73;216797;1294;22540;-82
2022/10/31 13:05:30;;;;;;;8.00;3.30;;;;;;;19.93;77.94;99122.91;216794;1292;22521;-82
2022/10/31 13:10:43;;;;;;;6.70;3.70;;;;;;;19.93;77.68;99124.08;216710;1309;25377;-82
2022/10/31 13:15:51;;;;;;;8.00;3.10;;;;;;;19.92;77.06;99123.49;216418;1309;22561;-82
2022/10/31 13:20:55;;;;;;;7.50;4.40;;;;;;;19.89;76.75;99120.13;216480;1287;25477;-82
2022/10/31 13:26:01;;;;;;;7.10;3.60;;;;;;;19.86;76.86;99119.67;216382;1287;22507;-82
2022/10/31 13:31:03;;;;;;;11.10;4.10;;;;;;;19.87;76.69;99121.56;215203;1285;22483;-82
2022/10/31 13:36:14;;;;;;;9.70;4.50;;;;;;;19.86;76.55;99124.02;216433;1309;25376;-81
2022/10/31 13:41:38;;;;;;;8.60;3.70;;;;;;;19.82;76.33;99120.02;216563;1287;23005;-82
2022/10/31 13:46:42;;;;;;;8.80;3.70;;;;;;;19.77;76.25;99119.99;216648;1292;23092;-82
2022/10/31 13:51:52;;;;;;;7.00;3.90;;;;;;;19.70;76.11;99116.73;216638;1285;22567;-80
2022/10/31 13:56:54;;;;;;;8.50;4.60;;;;;;;19.63;75.96;99118.77;216694;1284;22467;-80
2022/10/31 14:02:00;;;;;;;7.80;4.40;;;;;;;19.57;75.84;99119.82;215019;1308;22633;-83
2022/10/31 14:07:18;;;;;;;6.50;3.80;;;;;;;19.49;75.98;99116.70;214727;1285;103113;-85
2022/10/31 14:12:43;;;;;;;9.00;4.00;;;;;;;19.39;76.19;99114.45;214911;1309;22464;-84
2022/10/31 14:17:52;;;;;;;6.30;3.80;;;;;;;19.28;75.79;99112.85;214846;1294;24258;-85
2022/10/31 14:22:54;;;;;;;7.20;3.90;;;;;;;19.16;75.67;99111.31;214612;1309;23155;-84
2022/10/31 14:27:57;;;;;;;11.50;4.20;;;;;;;19.04;75.73;99107.71;214849;1309;22560;-84
2022/10/31 14:33:19;;;;;;;12.90;4.50;;;;;;;18.92;76.14;99104.23;214792;1309;25214;-85
2022/10/31 14:38:27;;;;;;;7.10;3.80;;;;;;;18.78;76.26;99103.39;214765;1309;23937;-84
2022/10/31 14:44:03;;;;;;;8.90;3.90;;;;;;;18.61;76.60;99101.19;214914;1301;22564;-85
2022/10/31 14:49:11;;;;;;;15.10;7.10;;;;;;;18.42;76.68;99094.92;214942;1309;22474;-84
2022/10/31 14:54:45;;;;;;;10.30;5.40;;;;;;;18.24;77.23;99091.27;214822;1309;22542;-85
2022/10/31 15:00:08;;;;;;;10.90;4.40;;;;;;;18.00;77.65;99086.23;214688;1305;22475;-83
2022/10/31 15:05:13;;;;;;;8.90;4.80;;;;;;;17.77;78.01;99085.86;214948;1309;22512;-85
2022/10/31 15:10:26;;;;;;;12.70;5.20;;;;;;;17.53;78.41;99080.95;214873;1309;25195;-84
2022/10/31 15:15:28;;;;;;;9.30;4.20;;;;;;;17.29;78.72;99081.45;215259;1309;23702;-85
2022/10/31 15:20:42;;;;;;;12.10;4.50;;;;;;;17.04;79.12;99083.77;214820;1309;25328;-84
2022/10/31 15:25:45;;;;;;;10.30;4.90;;;;;;;16.79;79.50;99079.55;214839;1309;22450;-83
2022/10/31 15:30:59;;;;;;;11.60;5.30;;;;;;;16.55;79.76;99073.65;214846;1309;22589;-84
2022/10/31 15:36:02;;;;;;;8.20;4.90;;;;;;;16.30;80.20;99073.14;214685;1309;22497;-84
2022/10/31 15:41:19;;;;;;;20.10;5.70;;;;;;;16.07;80.54;99073.20;214900;1309;22652;-84
2022/10/31 15:46:21;;;;;;;13.60;5.70;;;;;;;15.82;80.97;99073.67;215500;1308;24257;-83
2022/10/31 15:51:32;;;;;;;13.20;6.00;;;;;;;15.58;81.51;99076.66;215544;1309;25272;-83
2022/10/31 15:56:34;;;;;;;16.00;6.30;;;;;;;15.35;81.85;99075.32;214728;1309;23074;-83
2022/10/31 16:01:35;;;;;;;11.30;6.00;;;;;;;15.13;82.07;99080.16;214733;1309;22483;-83
2022/10/31 16:06:38;;;;;;;9.80;6.10;;;;;;;14.93;82.33;99081.39;214704;1308;22604;-83
2022/10/31 16:11:41;;;;;;;12.70;6.00;;;;;;;14.74;82.85;99082.59;214882;1302;22509;-82
2022/10/31 16:16:51;;;;;;;13.90;6.70;;;;;;;14.55;83.14;99083.17;214894;1302;22501;-82
2022/10/31 16:22:11;;;;;;;17.20;7.10;;;;;;;14.37;83.61;99088.11;214874;1309;25233;-84
2022/10/31 16:27:29;;;;;;;13.50;7.10;;;;;;;14.20;83.93;99088.63;214786;1309;24254;-83
2022/10/31 16:32:36;;;;;;;11.90;7.00;;;;;;;14.04;84.30;99092.91;214831;1309;24311;-84
2022/10/31 16:37:41;;;;;;;18.60;7.90;;;;;;;13.89;84.71;99094.05;214854;1309;23745;-84
2022/10/31 16:42:44;;;;;;;14.80;8.60;;;;;;;13.75;85.01;99095.15;214771;1308;22539;-84
2022/10/31 16:47:48;;;;;;;15.10;7.50;;;;;;;13.61;85.38;99095.29;214953;1309;24341;-84
2022/10/31 16:52:51;;;;;;;15.60;7.70;;;;;;;13.47;85.75;99097.21;214905;1309;22493;-82
2022/10/31 16:58:22;;;;;;;15.10;7.70;;;;;;;13.33;86.13;99097.59;214820;1309;22471;-83
2022/10/31 17:03:25;;;;;;;30.10;14.80;;;;;;;13.20;86.48;99098.30;214777;1309;23776;-83
2022/10/31 17:08:27;;;;;;;25.50;10.90;;;;;;;13.06;86.84;99096.98;214850;1309;25441;-84
2022/10/31 17:13:31;;;;;;;16.00;8.90;;;;;;;12.95;87.17;99096.27;214903;1305;22491;-84
2022/10/31 17:18:33;;;;;;;16.10;8.90;;;;;;;12.84;87.44;99096.17;214815;1306;25318;-85
2022/10/31 17:23:37;;;;;;;21.20;9.90;;;;;;;12.72;87.72;99097.69;214663;1309;24312;-84
2022/10/31 17:28:39;;;;;;;21.50;11.20;;;;;;;12.61;88.08;99096.52;214942;1307;24090;-83
2022/10/31 17:33:42;;;;;;;21.00;11.10;;;;;;;12.51;88.32;99097.95;214871;1309;24340;-84
2022/10/31 17:38:43;;;;;;;25.10;10.50;;;;;;;12.41;88.58;99101.66;214944;1309;22598;-83
2022/10/31 17:43:45;;;;;;;19.60;12.40;;;;;;;12.32;88.91;99100.30;214960;1309;26434;-83
2022/10/31 17:48:47;;;;;;;20.30;11.80;;;;;;;12.24;89.17;99098.33;214929;1305;22786;-83
2022/10/31 17:53:49;;;;;;;22.50;11.80;;;;;;;12.15;89.40;99097.27;214786;1309;22538;-83
2022/10/31 17:58:51;;;;;;;26.50;14.50;;;;;;;12.07;89.80;99096.24;214882;1309;22488;-83
2022/10/31 18:03:53;;;;;;;26.70;15.10;;;;;;;11.99;90.05;99096.08;214792;1309;22517;-84
2022/10/31 18:08:56;;;;;;;28.60;18.20;;;;;;;11.91;90.21;99097.24;214837;1309;24327;-84
2022/10/31 18:13:59;;;;;;;23.90;16.00;;;;;;;11.82;90.36;99091.88;214840;1295;22949;-84
2022/10/31 18:19:04;;;;;;;32.90;16.20;;;;;;;11.74;90.74;99095.20;214774;1309;22497;-83
2022/10/31 18:24:06;;;;;;;32.60;17.50;;;;;;;11.66;90.76;99096.05;214732;1309;25293;-83
2022/10/31 18:29:10;;;;;;;30.00;17.80;;;;;;;11.58;91.12;99091.05;214779;1309;24301;-84
2022/10/31 18:34:12;;;;;;;33.50;19.30;;;;;;;11.50;91.26;99082.14;214854;1303;22527;-84
2022/10/31 18:39:14;;;;;;;31.20;17.70;;;;;;;11.42;91.46;99077.62;214840;1309;22485;-84
2022/10/31 18:44:16;;;;;;;33.90;19.00;;;;;;;11.34;91.75;99078.13;214832;1309;22494;-82
2022/10/31 18:49:21;;;;;;;34.80;20.80;;;;;;;11.27;91.81;99073.64;214733;1309;23754;-84
2022/10/31 18:54:23;;;;;;;42.20;21.70;;;;;;;11.20;92.11;99072.55;214983;1309;22488;-84
2022/10/31 18:59:25;;;;;;;39.50;21.50;;;;;;;11.13;92.28;99067.42;214911;1309;22524;-83
2022/10/31 19:04:27;;;;;;;37.40;18.90;;;;;;;11.07;92.72;99062.27;214844;1309;22612;-84
2022/10/31 19:09:30;;;;;;;56.20;26.30;;;;;;;11.00;92.75;99065.14;215037;1309;23743;-83
2022/10/31 19:14:32;;;;;;;65.00;33.70;;;;;;;10.95;93.07;99066.69;214797;1302;22480;-83
2022/10/31 19:19:34;;;;;;;48.70;26.70;;;;;;;10.90;93.06;99066.46;214659;1309;24294;-84
2022/10/31 19:24:36;;;;;;;45.90;23.10;;;;;;;10.85;93.32;99061.20;214516;1309;25347;-83
2022/10/31 19:29:40;;;;;;;45.40;24.70;;;;;;;10.76;92.99;99057.27;214857;1309;25262;-83
2022/10/31 19:34:43;;;;;;;68.60;34.00;;;;;;;10.69;93.46;99059.42;214815;1309;25298;-83
2022/10/31 19:39:45;;;;;;;73.40;36.50;;;;;;;10.64;93.62;99058.73;214873;1309;22482;-83
2022/10/31 19:44:47;;;;;;;62.40;33.80;;;;;;;10.57;93.83;99059.30;214782;1309;25306;-84
2022/10/31 19:49:49;;;;;;;68.90;37.50;;;;;;;10.51;94.03;99058.94;214857;1307;22574;-83
2022/10/31 19:54:51;;;;;;;79.00;40.40;;;;;;;10.43;94.19;99053.81;214771;1308;24424;-84
2022/10/31 19:59:53;;;;;;;85.40;44.80;;;;;;;10.38;94.57;99049.61;214617;1309;22492;-83
2022/10/31 20:04:55;;;;;;;88.80;45.70;;;;;;;10.33;94.87;99051.14;214750;1309;24337;-82
2022/10/31 20:09:57;;;;;;;85.70;42.60;;;;;;;10.29;95.02;99052.48;214878;1306;24283;-83
2022/10/31 20:14:59;;;;;;;92.10;46.00;;;;;;;10.24;95.08;99045.89;214791;1309;23191;-82
2022/10/31 20:20:06;;;;;;;78.50;41.80;;;;;;;10.17;95.16;99040.10;214752;1309;22579;-83
2022/10/31 20:25:07;;;;;;;83.00;42.20;;;;;;;10.12;95.40;99031.14;214680;1309;22611;-84
2022/10/31 20:30:10;;;;;;;86.00;41.90;;;;;;;10.06;95.34;99033.75;214823;1309;22609;-83
2022/10/31 20:35:12;;;;;;;87.30;44.10;;;;;;;10.01;95.43;99034.74;214823;1309;23090;-83
2022/10/31 20:40:14;;;;;;;91.50;46.40;;;;;;;9.96;95.61;99038.86;214863;1309;22712;-84
2022/10/31 20:45:16;;;;;;;80.40;42.90;;;;;;;9.90;95.59;99037.11;214760;1309;22503;-83
2022/10/31 20:50:18;;;;;;;84.20;42.40;;;;;;;9.86;95.88;99031.20;214658;1309;24331;-84
2022/10/31 20:55:20;;;;;;;74.80;40.20;;;;;;;9.83;95.93;99023.73;214697;1294;22596;-84
2022/10/31 21:00:22;;;;;;;87.30;43.60;;;;;;;9.79;96.24;99018.23;214873;1309;22675;-82
2022/10/31 21:05:23;;;;;;;72.70;39.00;;;;;;;9.77;96.36;99015.32;214842;1309;22476;-84
2022/10/31 21:10:25;;;;;;;80.50;39.30;;;;;;;9.74;96.52;99013.99;214817;1309;22531;-82
2022/10/31 21:15:27;;;;;;;79.50;40.30;;;;;;;9.74;96.82;99010.23;214878;1309;22535;-83
2022/10/31 21:20:29;;;;;;;73.20;39.10;;;;;;;9.73;96.90;99007.68;214858;1309;24290;-83
2022/10/31 21:25:30;;;;;;;75.20;39.10;;;;;;;9.73;97.04;99006.03;214879;1306;22495;-83
2022/10/31 21:30:33;;;;;;;75.30;39.20;;;;;;;9.70;97.35;99011.87;214747;1309;22500;-85
2022/10/31 21:35:35;;;;;;;73.80;38.90;;;;;;;9.68;97.44;99004.77;214764;1309;22592;-83
2022/10/31 21:40:37;;;;;;;60.00;34.20;;;;;;;9.65;97.40;99003.45;214736;1309;22483;-83
2022/10/31 21:45:39;;;;;;;72.50;39.10;;;;;;;9.61;97.62;98997.80;214690;1309;25415;-83
2022/10/31 21:50:41;;;;;;;75.90;39.30;;;;;;;9.57;97.83;98995.09;214772;1309;22470;-86
2022/10/31 21:55:43;;;;;;;84.70;43.20;;;;;;;9.52;97.78;98988.16;214651;1309;22483;-83
2022/10/31 22:00:44;;;;;;;87.90;43.90;;;;;;;9.49;98.17;98983.79;214571;1309;23055;-80
2022/10/31 22:05:46;;;;;;;97.20;47.60;;;;;;;9.46;98.25;98973.81;214840;1309;22601;-82
2022/10/31 22:10:48;;;;;;;86.70;46.60;;;;;;;9.45;98.48;98968.89;214768;1309;25262;-83
2022/10/31 22:15:52;;;;;;;88.00;46.90;;;;;;;9.42;98.60;98964.21;214767;1309;22536;-83
2022/10/31 22:21:00;;;;;;;82.60;44.00;;;;;;;9.39;98.70;98964.71;214879;1309;24411;-83
2022/10/31 22:26:13;;;;;;;83.70;45.10;;;;;;;9.36;98.77;98964.40;214678;1309;22593;-85
2022/10/31 22:31:17;;;;;;;81.50;43.10;;;;;;;9.32;98.83;98955.91;214854;1309;25348;-83
2022/10/31 22:36:24;;;;;;;81.20;41.20;;;;;;;9.28;99.06;98947.34;214736;1309;22599;-84
2022/10/31 22:41:31;;;;;;;77.30;37.00;;;;;;;9.24;99.12;98943.23;215131;1309;22513;-82
2022/10/31 22:46:36;;;;;;;69.30;36.30;;;;;;;9.19;99.18;98940.37;214871;1309;22599;-83
2022/10/31 22:51:39;;;;;;;58.20;30.30;;;;;;;9.15;99.18;98941.23;214819;1309;25418;-83
2022/10/31 22:56:42;;;;;;;60.10;31.30;;;;;;;9.10;99.39;98944.31;214878;1309;22496;-83
2022/10/31 23:01:44;;;;;;;65.00;30.80;;;;;;;9.04;99.70;98943.91;214764;1305;23002;-83
2022/10/31 23:06:48;;;;;;;69.50;35.30;;;;;;;8.97;99.69;98943.51;214750;1304;22595;-84
2022/10/31 23:11:49;;;;;;;66.40;31.80;;;;;;;8.92;99.63;98935.78;214757;1309;22497;-83
2022/10/31 23:16:54;;;;;;;64.20;34.00;;;;;;;8.85;99.58;98930.47;214621;1309;24281;-84
2022/10/31 23:22:02;;;;;;;58.00;30.80;;;;;;;8.78;99.71;98928.73;214854;1309;24553;-83
2022/10/31 23:27:11;;;;;;;56.60;28.70;;;;;;;8.68;99.75;98937.73;214685;1309;22481;-83